Time;durP1;ratioP1;P1;durP2;ratioP2;P2;SDS_P1;SDS_P2;PMS_P1;PMS_P2;Temp;Humidity;BMP_temperature;BMP_pressure;BME280_temperature;BME280_humidity;BME280_pressure;Samples;Min_cycle;Max_cycle;Signal;HPM_P1;HPM_P2
2022/03/04 00:00:54;;;;;;;11.28;8.08;;;;;;;4.07;75.27;99946.62;1707730;82;21107;-69
2022/03/04 00:03:21;;;;;;;11.75;8.38;;;;;;;4.06;75.28;99945.54;1706255;82;21007;-69
2022/03/04 00:05:48;;;;;;;13.38;8.75;;;;;;;4.07;75.32;99945.82;1684415;83;21145;-69
2022/03/04 00:08:21;;;;;;;12.20;8.60;;;;;;;4.09;75.36;99944.56;1675189;83;21575;-70
2022/03/04 00:10:53;;;;;;;12.37;8.58;;;;;;;4.14;75.37;99943.34;1709289;82;21598;-68
2022/03/04 00:13:21;;;;;;;12.65;9.43;;;;;;;4.17;75.34;99942.09;1711021;82;21075;-69
2022/03/04 00:15:49;;;;;;;13.85;10.08;;;;;;;4.23;75.34;99939.84;1708374;82;21311;-69
2022/03/04 00:18:17;;;;;;;13.80;9.70;;;;;;;4.25;75.28;99939.63;1715012;82;21000;-68
2022/03/04 00:20:45;;;;;;;13.83;9.88;;;;;;;4.23;75.25;99936.69;1705400;82;21424;-68
2022/03/04 00:23:15;;;;;;;13.60;10.00;;;;;;;4.25;75.21;99937.80;1710590;82;21114;-69
2022/03/04 00:25:42;;;;;;;13.65;9.80;;;;;;;4.25;75.20;99934.34;1716708;82;21079;-70
2022/03/04 00:28:08;;;;;;;13.25;9.08;;;;;;;4.22;75.15;99937.73;1724264;82;21149;-70
2022/03/04 00:30:36;;;;;;;13.68;9.35;;;;;;;4.21;75.14;99936.12;1714252;83;21059;-69
2022/03/04 00:33:03;;;;;;;13.15;8.80;;;;;;;4.18;75.16;99935.27;1704738;82;21055;-68
2022/03/04 00:35:30;;;;;;;12.53;9.00;;;;;;;4.17;75.20;99929.67;1705265;82;22090;-68
2022/03/04 00:37:56;;;;;;;13.90;9.60;;;;;;;4.19;75.26;99929.45;1712574;82;21068;-69
2022/03/04 00:40:27;;;;;;;15.00;10.75;;;;;;;4.21;75.27;99932.16;1707328;82;21088;-68
2022/03/04 00:42:56;;;;;;;17.27;11.80;;;;;;;4.23;75.29;99924.79;1709255;82;20992;-69
2022/03/04 00:45:27;;;;;;;16.70;11.48;;;;;;;4.25;75.26;99929.86;1709574;82;21102;-69
2022/03/04 00:47:56;;;;;;;16.57;11.15;;;;;;;4.25;75.26;99924.58;1707864;82;21218;-69
2022/03/04 00:50:22;;;;;;;16.30;11.43;;;;;;;4.27;75.25;99929.09;1698538;83;21090;-69
2022/03/04 00:52:49;;;;;;;18.25;11.60;;;;;;;4.24;75.14;99924.27;1700626;82;21035;-69
2022/03/04 00:55:16;;;;;;;16.75;11.60;;;;;;;4.19;75.17;99926.81;1693827;82;21571;-70
2022/03/04 00:57:43;;;;;;;15.28;10.65;;;;;;;4.17;75.15;99926.23;1703915;82;21047;-69
2022/03/04 01:00:13;;;;;;;16.15;11.20;;;;;;;4.14;75.20;99926.69;1696946;82;21231;-70
2022/03/04 01:02:40;;;;;;;15.30;11.03;;;;;;;4.12;75.22;99924.80;1704898;82;21614;-70
2022/03/04 01:05:09;;;;;;;14.53;10.23;;;;;;;4.08;75.24;99924.47;1689035;83;21648;-69
2022/03/04 01:07:37;;;;;;;14.47;10.10;;;;;;;4.09;75.28;99923.95;1702512;82;21056;-68
2022/03/04 01:10:04;;;;;;;14.20;9.38;;;;;;;4.09;75.26;99923.95;1694055;82;21147;-68
2022/03/04 01:12:31;;;;;;;13.18;9.28;;;;;;;4.09;75.24;99921.30;1709255;82;21642;-69
2022/03/04 01:14:58;;;;;;;13.48;9.53;;;;;;;4.08;75.23;99924.95;1706508;82;21418;-69
2022/03/04 01:17:25;;;;;;;12.53;9.43;;;;;;;4.04;75.18;99922.49;1656535;85;21585;-70
2022/03/04 01:19:52;;;;;;;13.22;9.20;;;;;;;4.00;75.17;99925.59;1663833;83;21534;-69
2022/03/04 01:22:19;;;;;;;12.63;9.05;;;;;;;3.96;75.11;99926.28;1704733;83;21132;-69
2022/03/04 01:24:46;;;;;;;12.88;9.18;;;;;;;3.92;75.10;99924.63;1697628;82;21106;-69
2022/03/04 01:27:15;;;;;;;12.15;8.70;;;;;;;3.88;75.09;99923.97;1702483;82;21054;-69
2022/03/04 01:29:43;;;;;;;12.75;9.00;;;;;;;3.83;75.14;99924.66;1703848;82;21074;-68
2022/03/04 01:32:10;;;;;;;12.82;9.28;;;;;;;3.83;75.25;99923.34;1695541;82;21028;-69
2022/03/04 01:34:36;;;;;;;12.50;9.20;;;;;;;3.85;75.29;99922.61;1705114;82;21097;-68
2022/03/04 01:37:04;;;;;;;12.93;8.90;;;;;;;3.86;75.26;99924.73;1692016;82;21121;-69
2022/03/04 01:39:30;;;;;;;14.35;9.85;;;;;;;3.86;75.28;99923.41;1706757;82;21083;-69
2022/03/04 01:41:57;;;;;;;13.13;8.40;;;;;;;3.82;75.27;99929.66;1700392;82;21020;-69
2022/03/04 01:44:24;;;;;;;13.68;9.83;;;;;;;3.80;75.30;99928.28;1701094;82;21474;-69
2022/03/04 01:46:51;;;;;;;13.95;9.95;;;;;;;3.79;75.30;99931.96;1696706;82;21114;-70
2022/03/04 01:49:20;;;;;;;14.75;9.75;;;;;;;3.79;75.32;99930.13;1666097;83;21062;-68
2022/03/04 01:51:47;;;;;;;14.28;10.00;;;;;;;3.76;75.36;99928.73;1669345;83;21062;-69
2022/03/04 01:54:14;;;;;;;15.20;10.00;;;;;;;3.74;75.36;99929.47;1668538;83;20979;-69
2022/03/04 01:56:40;;;;;;;14.05;9.83;;;;;;;3.74;75.40;99929.47;1666328;83;21066;-70
2022/03/04 01:59:07;;;;;;;13.80;9.60;;;;;;;3.75;75.44;99934.22;1695747;82;21117;-70
2022/03/04 02:01:35;;;;;;;14.93;9.93;;;;;;;3.75;75.44;99928.94;1696664;82;21191;-69
2022/03/04 02:04:02;;;;;;;15.40;10.05;;;;;;;3.73;75.42;99930.50;1691809;82;21126;-70
2022/03/04 02:06:29;;;;;;;14.73;10.18;;;;;;;3.73;75.51;99937.11;1699906;82;21031;-69
2022/03/04 02:08:56;;;;;;;13.18;9.68;;;;;;;3.75;75.48;99930.27;1695474;83;21094;-69
2022/03/04 02:11:23;;;;;;;15.28;10.23;;;;;;;3.75;75.44;99931.58;1696182;82;21678;-69
2022/03/04 02:13:50;;;;;;;13.15;9.48;;;;;;;3.75;75.41;99939.50;1699417;82;21227;-69
2022/03/04 02:16:34;;;;;;;16.48;10.53;;;;;;;3.72;75.37;99937.34;1676890;83;21055;-68
2022/03/04 02:18:58;;;;;;;15.28;10.38;;;;;;;3.67;75.32;99939.33;1717375;82;26780;-70
2022/03/04 02:21:25;;;;;;;15.55;10.18;;;;;;;3.64;75.35;99936.34;1694692;82;21134;-69
2022/03/04 02:23:52;;;;;;;15.98;10.58;;;;;;;3.62;75.35;99937.06;1699842;82;21036;-70
2022/03/04 02:26:19;;;;;;;14.65;9.80;;;;;;;3.58;75.37;99942.52;1698203;83;21419;-69
2022/03/04 02:28:46;;;;;;;15.70;9.93;;;;;;;3.53;75.38;99933.45;1698329;82;20946;-69
2022/03/04 02:31:18;;;;;;;16.65;9.68;;;;;;;3.52;75.43;99940.25;1703160;82;21059;-68
2022/03/04 02:33:45;;;;;;;14.55;10.00;;;;;;;3.51;75.49;99935.50;1696554;82;20992;-69
2022/03/04 02:36:13;;;;;;;15.00;10.03;;;;;;;3.50;75.53;99933.89;1689096;82;21084;-69
2022/03/04 02:38:40;;;;;;;14.58;10.25;;;;;;;3.50;75.54;99939.70;1681757;82;21091;-68
2022/03/04 02:41:07;;;;;;;14.87;9.65;;;;;;;3.49;75.57;99942.86;1692492;83;21044;-69
2022/03/04 02:43:34;;;;;;;15.95;10.13;;;;;;;3.47;75.54;99946.74;1688189;82;21013;-69
2022/03/04 02:46:00;;;;;;;15.10;10.00;;;;;;;3.46;75.60;99944.62;1709061;82;21152;-69
2022/03/04 02:48:27;;;;;;;15.65;9.53;;;;;;;3.47;75.62;99946.22;1697144;82;21079;-69
2022/03/04 02:50:56;;;;;;;14.78;9.80;;;;;;;3.52;75.59;99956.09;1695115;83;22586;-69
2022/03/04 02:53:23;;;;;;;16.10;9.75;;;;;;;3.53;75.50;99951.93;1699714;83;21087;-70
2022/03/04 02:55:50;;;;;;;15.70;9.80;;;;;;;3.56;75.45;99951.20;1692938;82;21043;-69
2022/03/04 02:58:16;;;;;;;16.90;10.30;;;;;;;3.57;75.42;99943.56;1702026;83;21020;-69
2022/03/04 03:00:45;;;;;;;14.33;9.63;;;;;;;3.58;75.31;99957.05;1698935;82;21685;-68
2022/03/04 03:03:11;;;;;;;16.02;9.93;;;;;;;3.59;75.26;99952.88;1698461;82;21215;-69
2022/03/04 03:05:38;;;;;;;17.37;10.15;;;;;;;3.59;75.14;99960.80;1690089;83;21052;-70
2022/03/04 03:08:05;;;;;;;15.83;10.30;;;;;;;3.56;75.07;99957.80;1685450;85;21027;-69
2022/03/04 03:10:32;;;;;;;13.53;8.83;;;;;;;3.53;75.06;99957.20;1695980;82;21071;-69
2022/03/04 03:12:59;;;;;;;15.58;9.80;;;;;;;3.52;75.00;99956.93;1699934;82;21000;-70
2022/03/04 03:15:27;;;;;;;13.45;8.60;;;;;;;3.51;74.96;99964.54;1698969;82;21749;-69
2022/03/04 03:17:54;;;;;;;13.58;8.75;;;;;;;3.48;74.93;99957.06;1693939;82;21068;-69
2022/03/04 03:20:21;;;;;;;15.08;9.55;;;;;;;3.44;74.94;99961.19;1645740;84;21059;-69
2022/03/04 03:22:48;;;;;;;14.60;9.15;;;;;;;3.40;74.98;99957.92;1663587;83;21063;-69
2022/03/04 03:25:15;;;;;;;14.20;9.05;;;;;;;3.41;74.97;99973.52;1670822;83;21069;-68
2022/03/04 03:27:42;;;;;;;14.47;9.20;;;;;;;3.42;74.93;99960.63;1698336;82;21010;-68
2022/03/04 03:30:11;;;;;;;14.05;9.73;;;;;;;3.44;74.88;99965.67;1697932;82;21374;-68
2022/03/04 03:32:38;;;;;;;16.85;9.75;;;;;;;3.46;74.86;99959.14;1703499;82;21245;-70
2022/03/04 03:35:12;;;;;;;16.00;9.28;;;;;;;3.46;74.78;99969.70;1695372;82;21115;-69
2022/03/04 03:37:39;;;;;;;13.85;8.43;;;;;;;3.43;74.70;99966.19;1695605;83;21043;-69
2022/03/04 03:40:08;;;;;;;13.20;8.88;;;;;;;3.41;74.69;99968.23;1705223;82;21154;-68
2022/03/04 03:42:36;;;;;;;14.93;8.55;;;;;;;3.38;74.71;99968.69;1705845;82;21139;-70
2022/03/04 03:45:05;;;;;;;13.53;8.30;;;;;;;3.39;74.73;99968.16;1704988;82;21121;-69
2022/03/04 03:47:32;;;;;;;12.60;8.03;;;;;;;3.39;74.68;99972.95;1702199;82;21047;-69
2022/03/04 03:49:59;;;;;;;13.72;8.28;;;;;;;3.39;74.56;99961.08;1707795;82;21086;-69
2022/03/04 03:52:26;;;;;;;12.05;8.40;;;;;;;3.36;74.51;99965.48;1700610;82;22059;-69
2022/03/04 03:54:56;;;;;;;12.13;7.97;;;;;;;3.36;74.49;99969.44;1706582;82;21135;-70
2022/03/04 03:57:23;;;;;;;12.88;8.20;;;;;;;3.40;74.47;99975.08;1705148;82;21012;-69
2022/03/04 03:59:50;;;;;;;11.68;7.83;;;;;;;3.41;74.33;99967.44;1704773;82;21036;-70
2022/03/04 04:02:17;;;;;;;13.85;8.23;;;;;;;3.43;74.25;99971.99;1705777;82;21566;-70
2022/03/04 04:04:44;;;;;;;12.47;7.87;;;;;;;3.43;74.17;99967.51;1703237;82;21137;-69
2022/03/04 04:07:12;;;;;;;11.83;7.53;;;;;;;3.41;73.94;99962.95;1703063;82;21123;-69
2022/03/04 04:09:39;;;;;;;12.45;7.78;;;;;;;3.39;73.87;99961.08;1703677;83;21031;-69
2022/03/04 04:12:07;;;;;;;12.65;7.62;;;;;;;3.41;73.79;99962.16;1700463;83;21515;-70
2022/03/04 04:14:34;;;;;;;11.97;7.92;;;;;;;3.41;73.77;99964.80;1702361;82;21075;-70
2022/03/04 04:17:03;;;;;;;12.10;7.90;;;;;;;3.42;73.76;99956.67;1700312;82;21845;-70
2022/03/04 04:19:30;;;;;;;13.13;8.33;;;;;;;3.44;73.70;99961.19;1702813;82;21633;-69
2022/03/04 04:21:57;;;;;;;14.50;8.00;;;;;;;3.44;73.55;99959.88;1703631;82;20968;-70
2022/03/04 04:24:24;;;;;;;11.48;7.58;;;;;;;3.40;73.40;99964.52;1698853;82;21106;-69
2022/03/04 04:26:51;;;;;;;11.55;7.22;;;;;;;3.36;73.30;99963.36;1698806;82;21008;-69
2022/03/04 04:29:18;;;;;;;11.25;7.60;;;;;;;3.34;73.30;99961.45;1694177;82;21101;-69
2022/03/04 04:31:45;;;;;;;13.85;7.85;;;;;;;3.34;73.25;99962.25;1694940;82;21000;-68
2022/03/04 04:34:12;;;;;;;11.48;7.80;;;;;;;3.28;73.09;99953.38;1689798;83;22100;-68
2022/03/04 04:36:39;;;;;;;11.28;7.70;;;;;;;3.27;73.05;99957.58;1698481;82;21158;-69
2022/03/04 04:39:09;;;;;;;13.08;7.83;;;;;;;3.24;72.96;99960.14;1704468;82;21035;-70
2022/03/04 04:41:36;;;;;;;12.05;7.28;;;;;;;3.25;72.88;99956.98;1701409;82;21299;-69
2022/03/04 04:44:03;;;;;;;11.97;7.30;;;;;;;3.23;72.82;99959.06;1702521;82;21071;-70
2022/03/04 04:46:32;;;;;;;12.28;7.35;;;;;;;3.22;72.57;99958.75;1702817;82;21036;-70
2022/03/04 04:48:59;;;;;;;12.30;8.03;;;;;;;3.19;72.43;99957.88;1702032;83;20996;-70
2022/03/04 04:51:26;;;;;;;10.88;7.62;;;;;;;3.19;72.35;99961.83;1710549;82;21043;-68
2022/03/04 04:53:56;;;;;;;12.65;7.97;;;;;;;3.16;72.24;99963.59;1702424;82;21170;-68
2022/03/04 04:56:23;;;;;;;12.50;7.83;;;;;;;3.15;72.17;99964.63;1699082;82;21000;-68
2022/03/04 04:58:52;;;;;;;11.63;8.03;;;;;;;3.19;72.08;99973.22;1701154;82;21078;-69
2022/03/04 05:01:23;;;;;;;11.70;8.03;;;;;;;3.21;71.97;99972.46;1702390;82;21051;-69
2022/03/04 05:03:47;;;;;;;12.98;8.20;;;;;;;3.24;71.85;99980.45;1704948;82;21043;-68
2022/03/04 05:06:14;;;;;;;11.22;7.87;;;;;;;3.23;71.67;99982.81;1676785;83;22060;-69
2022/03/04 05:08:41;;;;;;;12.58;7.80;;;;;;;3.17;71.54;99972.63;1672191;84;21568;-69
2022/03/04 05:11:09;;;;;;;11.63;7.78;;;;;;;3.19;71.52;99978.98;1709359;83;21147;-69
2022/03/04 05:13:38;;;;;;;11.00;7.58;;;;;;;3.19;71.52;99981.13;1696445;82;21004;-69
2022/03/04 05:16:05;;;;;;;12.15;7.65;;;;;;;3.21;71.44;99983.53;1700963;82;21122;-68
2022/03/04 05:18:32;;;;;;;13.28;8.00;;;;;;;3.24;71.41;99989.69;1706212;82;21142;-68
2022/03/04 05:20:59;;;;;;;13.68;8.00;;;;;;;3.22;71.24;99988.58;1705717;82;21068;-68
2022/03/04 05:26:11;;;;;;;12.00;7.50;;;;;;;3.25;71.15;99991.30;1696663;82;21098;-69
2022/03/04 05:28:38;;;;;;;12.88;8.55;;;;;;;3.26;70.96;99998.20;1702772;82;21095;-69
2022/03/04 05:31:05;;;;;;;13.28;8.63;;;;;;;3.25;70.92;99993.94;1699374;82;21142;-69
2022/03/04 05:33:32;;;;;;;13.05;8.40;;;;;;;3.25;70.86;99994.73;1690399;83;21035;-70
2022/03/04 05:36:00;;;;;;;12.58;8.50;;;;;;;3.28;70.77;99996.13;1696748;82;21134;-69
2022/03/04 05:38:28;;;;;;;10.95;7.85;;;;;;;3.29;70.72;99998.56;1695893;82;21047;-68
2022/03/04 05:40:56;;;;;;;12.70;7.75;;;;;;;3.33;70.66;100003.40;1693246;82;21056;-70
2022/03/04 05:43:24;;;;;;;10.75;7.33;;;;;;;3.36;70.41;100009.55;1690408;83;39066;-70
2022/03/04 05:45:51;;;;;;;13.48;7.85;;;;;;;3.37;70.35;100004.56;1707723;82;21122;-70
2022/03/04 05:48:18;;;;;;;11.85;7.80;;;;;;;3.37;70.21;100017.23;1661474;85;21086;-70
2022/03/04 05:50:45;;;;;;;10.20;7.20;;;;;;;3.38;70.15;100016.20;1661547;83;21564;-69
2022/03/04 05:53:12;;;;;;;11.95;7.97;;;;;;;3.42;70.10;100018.71;1699045;82;21123;-69
2022/03/04 05:55:39;;;;;;;12.88;8.05;;;;;;;3.44;69.94;100024.55;1700816;82;21231;-69
2022/03/04 05:58:07;;;;;;;11.60;7.80;;;;;;;3.43;69.70;100018.99;1700658;82;20983;-69
2022/03/04 06:00:34;;;;;;;13.40;7.80;;;;;;;3.43;69.63;100026.91;1695188;82;21039;-69
2022/03/04 06:03:01;;;;;;;11.95;8.50;;;;;;;3.43;69.64;100019.52;1714342;82;21115;-69
2022/03/04 06:05:29;;;;;;;11.90;7.72;;;;;;;3.43;69.69;100017.67;1699557;82;21189;-69
2022/03/04 06:07:56;;;;;;;11.57;8.40;;;;;;;3.46;69.73;100029.11;1697328;82;21146;-69
2022/03/04 06:10:23;;;;;;;12.37;8.55;;;;;;;3.48;69.76;100022.27;1697245;82;21126;-69
2022/03/04 06:12:50;;;;;;;12.73;8.03;;;;;;;3.49;69.70;100031.30;1702660;82;21187;-69
2022/03/04 06:15:17;;;;;;;13.53;7.60;;;;;;;3.48;69.54;100032.31;1698542;82;21048;-69
2022/03/04 06:17:49;;;;;;;12.50;7.60;;;;;;;3.48;69.52;100024.91;1703711;82;21463;-68
2022/03/04 06:20:18;;;;;;;11.73;8.05;;;;;;;3.50;69.36;100035.55;1702769;82;21464;-71
2022/03/04 06:22:45;;;;;;;12.33;7.97;;;;;;;3.52;69.39;100036.14;1702139;82;21586;-68
2022/03/04 06:25:16;;;;;;;14.65;7.90;;;;;;;3.56;69.27;100031.73;1703277;82;21134;-69
2022/03/04 06:28:02;;;;;;;10.72;7.17;;;;;;;3.56;69.11;100035.18;1706721;82;21114;-69
2022/03/04 06:30:32;;;;;;;12.55;8.15;;;;;;;3.58;69.04;100033.10;1658893;83;21090;-68
2022/03/04 06:35:48;;;;;;;10.82;7.10;;;;;;;3.66;68.94;100033.33;1667543;83;21091;-70
2022/03/04 06:38:15;;;;;;;11.03;6.90;;;;;;;3.69;68.58;100030.23;1668202;83;21106;-69
2022/03/04 06:40:46;;;;;;;11.57;7.53;;;;;;;3.74;68.43;100034.31;1675964;83;21008;-70
2022/03/04 06:43:15;;;;;;;11.85;7.22;;;;;;;3.82;67.91;100032.69;1673895;83;21538;-69
2022/03/04 06:45:44;;;;;;;11.53;7.40;;;;;;;3.85;67.46;100027.45;1663718;83;21681;-70
2022/03/04 06:48:13;;;;;;;10.38;6.85;;;;;;;3.90;67.18;100035.52;1670095;84;21030;-69
2022/03/04 06:50:40;;;;;;;11.97;7.42;;;;;;;3.94;67.13;100033.51;1674322;83;21542;-69
2022/03/04 06:53:07;;;;;;;9.95;6.75;;;;;;;4.00;66.79;100039.22;1673735;85;21016;-70
2022/03/04 06:55:34;;;;;;;10.50;7.08;;;;;;;4.03;66.17;100027.91;1657350;84;21056;-70
2022/03/04 06:58:01;;;;;;;10.45;7.22;;;;;;;4.05;65.77;100035.08;1646091;87;21216;-69
2022/03/04 07:00:28;;;;;;;10.55;6.60;;;;;;;4.04;65.56;100034.80;1647086;87;21048;-71
2022/03/04 07:02:55;;;;;;;11.22;6.87;;;;;;;4.05;65.31;100030.63;1660169;84;21068;-69
2022/03/04 07:05:27;;;;;;;11.65;7.30;;;;;;;4.06;65.08;100038.03;1663813;85;21017;-70
2022/03/04 07:07:56;;;;;;;;;;;;;;;4.02;65.22;100035.05;1643219;86;21578;-70
2022/03/04 07:10:23;;;;;;;12.93;7.53;;;;;;;4.04;65.23;100048.02;1644853;84;21104;-69
2022/03/04 07:12:56;;;;;;;14.80;7.90;;;;;;;4.06;64.96;100034.07;1651242;85;21123;-68
2022/03/04 07:15:22;;;;;;;10.35;6.62;;;;;;;4.07;64.99;100040.44;1648082;86;21016;-69
2022/03/04 07:17:49;;;;;;;11.25;7.30;;;;;;;4.09;64.89;100046.31;1653816;84;21590;-69
2022/03/04 07:20:18;;;;;;;12.50;7.80;;;;;;;4.07;64.77;100042.28;1702063;82;21162;-70
2022/03/04 07:22:45;;;;;;;11.65;6.75;;;;;;;4.08;64.69;100034.63;1698514;82;21417;-69
2022/03/04 07:25:13;;;;;;;12.95;7.42;;;;;;;4.14;64.78;100044.30;1700937;82;21150;-69
2022/03/04 07:27:40;;;;;;;11.22;6.97;;;;;;;4.16;64.09;100047.53;1702935;82;21051;-69
2022/03/04 07:30:11;;;;;;;13.22;7.40;;;;;;;4.14;63.98;100037.17;1701383;82;20996;-69
2022/03/04 07:32:43;;;;;;;12.05;6.75;;;;;;;4.21;64.02;100041.03;1665235;83;21589;-70
2022/03/04 07:35:17;;;;;;;12.50;7.08;;;;;;;4.28;63.39;100040.92;1704302;82;21456;-68
2022/03/04 07:37:48;;;;;;;11.73;7.53;;;;;;;4.33;63.16;100041.86;1671798;83;21628;-70
2022/03/04 07:40:22;;;;;;;11.85;7.00;;;;;;;4.38;62.76;100054.42;1660265;83;21066;-69
2022/03/04 07:42:49;;;;;;;13.18;7.40;;;;;;;4.36;62.38;100034.80;1697037;82;21152;-69
2022/03/04 07:45:16;;;;;;;10.55;6.75;;;;;;;4.40;62.16;100043.08;1697006;82;21047;-69
2022/03/04 07:47:43;;;;;;;13.32;7.37;;;;;;;4.41;61.89;100040.22;1702330;82;21715;-70
2022/03/04 07:50:15;;;;;;;12.15;7.25;;;;;;;4.44;61.78;100058.27;1721476;82;21087;-69
2022/03/04 07:52:43;;;;;;;13.38;7.25;;;;;;;4.44;61.47;100049.02;1697887;82;21079;-69
2022/03/04 07:55:13;;;;;;;13.75;7.90;;;;;;;4.45;61.29;100045.33;1696433;83;21075;-70
2022/03/04 07:57:42;;;;;;;10.75;6.50;;;;;;;4.45;61.14;100042.69;1702963;83;21048;-70
2022/03/04 08:00:13;;;;;;;14.78;7.53;;;;;;;4.49;61.07;100043.55;1722137;82;21216;-69
2022/03/04 08:02:40;;;;;;;12.70;7.30;;;;;;;4.51;61.24;100048.08;1658572;84;21086;-70
2022/03/04 08:05:09;;;;;;;11.85;7.08;;;;;;;4.56;61.00;100043.72;1701296;82;21063;-69
2022/03/04 08:07:37;;;;;;;11.15;6.97;;;;;;;4.59;60.99;100043.27;1694556;82;21056;-68
2022/03/04 08:10:05;;;;;;;11.88;7.03;;;;;;;4.64;60.83;100051.81;1658929;83;21252;-70
2022/03/04 08:12:34;;;;;;;13.43;7.62;;;;;;;4.64;60.45;100044.72;1699233;82;22312;-70
2022/03/04 08:15:02;;;;;;;12.13;6.90;;;;;;;4.67;60.75;100052.69;1697756;82;21127;-70
2022/03/04 08:17:30;;;;;;;10.25;7.12;;;;;;;4.74;60.67;100045.46;1702179;82;21028;-69
2022/03/04 08:20:02;;;;;;;11.55;7.25;;;;;;;4.79;60.17;100056.14;1708327;82;21094;-68
2022/03/04 08:22:31;;;;;;;11.57;6.78;;;;;;;4.82;60.23;100049.59;1703084;82;21436;-69
2022/03/04 08:24:58;;;;;;;10.45;7.05;;;;;;;4.88;60.04;100061.37;1698976;82;21397;-70
2022/03/04 08:27:26;;;;;;;11.12;6.92;;;;;;;4.97;60.00;100053.06;1695171;82;21047;-70
2022/03/04 08:29:53;;;;;;;11.28;7.05;;;;;;;5.02;59.60;100056.64;1707057;82;21058;-69
2022/03/04 08:32:23;;;;;;;10.23;7.15;;;;;;;5.04;59.46;100059.07;1714509;82;20985;-70
2022/03/04 08:34:51;;;;;;;10.90;6.83;;;;;;;5.05;59.40;100050.88;1708577;82;21542;-70
2022/03/04 08:37:22;;;;;;;10.40;6.97;;;;;;;5.10;59.57;100053.65;1653755;85;22605;-70
2022/03/04 08:39:49;;;;;;;10.90;6.42;;;;;;;5.19;59.13;100056.72;1704852;82;21051;-69
2022/03/04 08:42:16;;;;;;;12.33;6.72;;;;;;;5.17;58.79;100055.64;1700733;82;21102;-68
2022/03/04 08:44:43;;;;;;;10.95;6.45;;;;;;;5.16;58.71;100055.34;1697642;82;21096;-69
2022/03/04 08:47:10;;;;;;;11.30;7.08;;;;;;;5.19;58.61;100072.61;1712143;83;21154;-69
2022/03/04 08:49:37;;;;;;;11.60;7.03;;;;;;;5.22;58.26;100061.55;1717253;82;21634;-69
2022/03/04 08:52:06;;;;;;;10.35;7.10;;;;;;;5.23;58.30;100061.86;1693625;81;21086;-70
2022/03/04 08:54:34;;;;;;;10.72;6.85;;;;;;;5.22;58.21;100057.58;1697479;82;21527;-70
2022/03/04 08:57:01;;;;;;;9.35;6.67;;;;;;;5.25;58.30;100065.05;1700189;82;20996;-71
2022/03/04 08:59:28;;;;;;;9.45;6.35;;;;;;;5.30;58.41;100063.05;1705162;82;21067;-69
2022/03/04 09:01:56;;;;;;;12.40;6.92;;;;;;;5.37;58.44;100061.88;1657435;83;22211;-69
2022/03/04 09:04:24;;;;;;;13.15;7.95;;;;;;;5.44;58.33;100064.39;1665517;83;21204;-69
2022/03/04 09:06:51;;;;;;;11.78;6.80;;;;;;;5.48;58.29;100062.07;1665737;83;21078;-69
2022/03/04 09:09:19;;;;;;;12.90;7.42;;;;;;;5.55;58.29;100060.08;1695238;82;21043;-70
2022/03/04 09:11:46;;;;;;;11.53;6.92;;;;;;;5.59;57.78;100054.59;1698837;82;21134;-68
2022/03/04 09:14:15;;;;;;;10.85;7.12;;;;;;;5.60;57.38;100066.81;1701864;82;21232;-69
2022/03/04 09:16:43;;;;;;;11.65;7.12;;;;;;;5.60;57.25;100062.84;1702549;82;21059;-69
2022/03/04 09:19:10;;;;;;;11.48;7.42;;;;;;;5.61;57.45;100064.44;1706730;82;21059;-69
2022/03/04 09:21:37;;;;;;;10.35;6.67;;;;;;;5.69;57.54;100073.84;1702823;82;21287;-69
2022/03/04 09:24:06;;;;;;;10.13;7.03;;;;;;;5.76;57.22;100067.88;1665831;83;21075;-69
2022/03/04 09:26:34;;;;;;;9.40;6.37;;;;;;;5.76;56.73;100071.36;1698329;82;21543;-70
2022/03/04 09:29:02;;;;;;;11.40;6.70;;;;;;;5.75;56.32;100059.66;1706561;82;21103;-69
2022/03/04 09:31:31;;;;;;;10.18;6.92;;;;;;;5.71;56.30;100067.28;1643097;85;21124;-68
2022/03/04 09:33:59;;;;;;;10.18;6.80;;;;;;;5.69;56.47;100058.75;1666605;83;21016;-69
2022/03/04 09:36:26;;;;;;;9.68;6.35;;;;;;;5.65;56.37;100065.58;1703185;82;21090;-69
2022/03/04 09:38:53;;;;;;;10.10;6.83;;;;;;;5.68;56.10;100057.16;1695718;82;21265;-69
2022/03/04 09:41:20;;;;;;;11.00;6.70;;;;;;;5.70;56.09;100059.06;1696542;82;21063;-69
2022/03/04 09:43:47;;;;;;;10.65;6.10;;;;;;;5.73;56.18;100051.96;1700423;83;21039;-69
2022/03/04 09:46:14;;;;;;;10.18;6.87;;;;;;;5.77;55.99;100055.73;1710419;82;21039;-69
2022/03/04 09:48:45;;;;;;;10.32;6.28;;;;;;;5.80;55.18;100055.80;1647075;82;21071;-70
2022/03/04 09:51:12;;;;;;;10.63;6.33;;;;;;;5.82;54.92;100051.04;1664582;83;21233;-69
2022/03/04 09:53:39;;;;;;;9.40;5.78;;;;;;;5.83;55.04;100056.12;1666164;83;21127;-69
2022/03/04 09:56:07;;;;;;;9.28;6.37;;;;;;;5.82;54.93;100050.55;1711361;81;21079;-70
2022/03/04 09:58:37;;;;;;;11.48;7.58;;;;;;;5.80;54.77;100056.59;1673841;84;21025;-69
2022/03/04 10:01:14;;;;;;;10.68;6.70;;;;;;;5.79;54.98;100048.86;1671424;83;21727;-69
2022/03/04 10:07:45;;;;;;;10.00;6.28;;;;;;;5.90;55.21;100064.45;1672928;84;21049;-69
2022/03/04 10:10:15;;;;;;;9.75;6.42;;;;;;;5.92;55.15;100061.02;1677108;83;21054;-68
2022/03/04 10:12:52;;;;;;;8.80;6.13;;;;;;;5.91;55.23;100066.05;1672203;84;21544;-68
2022/03/04 10:15:19;;;;;;;8.58;5.92;;;;;;;5.93;55.21;100074.61;1673900;84;21758;-69
2022/03/04 10:18:04;;;;;;;12.15;6.53;;;;;;;5.93;54.55;100060.83;1671924;84;21168;-69
2022/03/04 10:20:40;;;;;;;10.82;6.83;;;;;;;5.93;54.30;100063.48;1680811;84;21094;-70
2022/03/04 10:23:22;;;;;;;10.78;5.95;;;;;;;5.93;53.88;100082.56;1673961;84;21100;-70
2022/03/04 10:25:52;;;;;;;10.82;6.80;;;;;;;5.91;53.15;100069.50;1686569;84;21052;-70
2022/03/04 10:28:25;;;;;;;10.40;7.12;;;;;;;5.88;53.40;100070.77;1668631;83;21098;-69
2022/03/04 10:30:54;;;;;;;10.70;6.37;;;;;;;5.90;53.89;100051.20;1671483;83;21278;-69
2022/03/04 10:33:25;;;;;;;10.53;6.47;;;;;;;5.86;53.12;100071.55;1676536;85;21115;-69
2022/03/04 10:36:13;;;;;;;11.60;7.03;;;;;;;5.90;52.71;100061.80;1680076;84;20999;-69
2022/03/04 10:38:41;;;;;;;9.78;6.45;;;;;;;5.96;52.71;100056.38;1664076;84;21063;-69
2022/03/04 10:41:23;;;;;;;12.58;6.87;;;;;;;6.02;52.42;100059.41;1695451;83;21566;-69
2022/03/04 10:43:51;;;;;;;9.88;6.85;;;;;;;6.05;52.02;100063.41;1692650;82;21885;-70
2022/03/04 10:46:20;;;;;;;10.53;6.47;;;;;;;6.11;52.32;100059.80;1700626;82;21095;-70
2022/03/04 10:48:57;;;;;;;9.75;6.20;;;;;;;6.24;52.32;100061.34;1695157;82;21633;-70
2022/03/04 10:51:39;;;;;;;11.22;6.37;;;;;;;6.33;51.43;100050.09;1664978;83;21605;-70
2022/03/04 10:54:18;;;;;;;11.35;7.12;;;;;;;6.34;51.67;100050.37;1667566;83;21054;-69
2022/03/04 10:56:55;;;;;;;10.50;6.53;;;;;;;6.36;52.26;100046.69;1702429;82;22199;-69
2022/03/04 10:59:23;;;;;;;9.65;6.78;;;;;;;6.39;51.85;100058.14;1683996;82;21062;-70
2022/03/04 11:01:55;;;;;;;10.32;6.72;;;;;;;6.36;51.20;100058.63;1685761;82;21055;-69
2022/03/04 11:04:23;;;;;;;11.15;6.97;;;;;;;6.31;51.42;100044.74;1683942;83;21031;-70
2022/03/04 11:06:50;;;;;;;10.65;6.78;;;;;;;6.30;51.77;100049.77;1675428;83;21027;-70
2022/03/04 11:09:24;;;;;;;10.68;6.62;;;;;;;6.36;51.78;100046.69;1671677;83;21275;-71
2022/03/04 11:11:52;;;;;;;12.10;6.83;;;;;;;6.43;52.18;100040.70;1692554;82;21523;-70
2022/03/04 11:14:22;;;;;;;12.50;7.70;;;;;;;6.49;52.05;100037.88;1697652;82;21067;-68
2022/03/04 11:16:52;;;;;;;11.95;7.33;;;;;;;6.49;51.08;100055.13;1693104;82;21023;-68
2022/03/04 11:19:20;;;;;;;12.30;7.55;;;;;;;6.47;51.10;100039.16;1663666;84;21633;-70
2022/03/04 11:21:47;;;;;;;10.53;6.97;;;;;;;6.47;51.43;100041.28;1650612;85;21224;-68
2022/03/04 11:24:14;;;;;;;11.78;7.72;;;;;;;6.46;51.50;100042.87;1702929;82;20980;-69
2022/03/04 11:26:44;;;;;;;10.98;7.33;;;;;;;6.46;51.00;100044.19;1668244;83;20984;-70
2022/03/04 11:29:32;;;;;;;12.65;7.55;;;;;;;6.53;51.29;100039.52;1700358;82;21483;-70
2022/03/04 11:31:59;;;;;;;13.50;8.10;;;;;;;6.60;50.87;100038.02;1678290;84;21019;-69
2022/03/04 11:34:42;;;;;;;12.65;7.05;;;;;;;6.64;51.07;100029.84;1698280;82;21226;-69
2022/03/04 11:37:16;;;;;;;;;;;;;;;6.66;50.14;100043.69;1700034;82;21020;-69
2022/03/04 11:40:33;;;;;;;10.38;7.08;;;;;;;6.65;50.40;100050.85;1698668;82;20234;-69
2022/03/04 11:42:44;;;;;;;10.60;6.72;;;;;;;6.67;49.97;100044.77;1663541;84;21620;-69
2022/03/04 11:45:11;;;;;;;9.98;7.03;;;;;;;6.67;49.47;100047.41;1705054;82;21071;-71